Time;durP1;ratioP1;P1;durP2;ratioP2;P2;SDS_P1;SDS_P2;PMS_P1;PMS_P2;Temp;Humidity;BMP_temperature;BMP_pressure;BME280_temperature;BME280_humidity;BME280_pressure;Samples;Min_cycle;Max_cycle;Signal;HPM_P1;HPM_P2
2023/07/31 00:00:17;;;;;;;5.90;2.38;;;16.00;99.90;;;;;;4982202;28;20449;-81
2023/07/31 00:02:44;;;;;;;3.97;2.17;;;16.20;99.90;;;;;;4993868;28;20209;-80
2023/07/31 00:05:11;;;;;;;3.58;1.73;;;16.10;99.90;;;;;;4985957;28;20212;-81
2023/07/31 00:07:37;;;;;;;2.40;1.92;;;16.00;99.90;;;;;;5002659;28;20228;-78
2023/07/31 00:10:05;;;;;;;4.18;2.00;;;16.20;99.90;;;;;;4999607;28;20204;-79
2023/07/31 00:12:32;;;;;;;5.72;1.83;;;16.00;99.90;;;;;;5002527;28;20201;-81
2023/07/31 00:15:00;;;;;;;4.22;1.73;;;16.10;99.90;;;;;;5011729;28;20205;-81
2023/07/31 00:17:27;;;;;;;5.70;2.15;;;16.20;99.90;;;;;;4997630;28;20222;-81
2023/07/31 00:19:54;;;;;;;6.65;2.80;;;16.10;99.90;;;;;;4999242;28;20215;-79
2023/07/31 00:22:21;;;;;;;3.40;2.00;;;16.00;99.90;;;;;;5000528;28;20204;-80
2023/07/31 00:24:47;;;;;;;2.13;1.80;;;16.00;99.90;;;;;;5001262;28;20201;-80
2023/07/31 00:27:14;;;;;;;3.70;1.75;;;16.10;99.90;;;;;;4998732;28;20271;-78
2023/07/31 00:29:41;;;;;;;3.00;2.10;;;16.10;99.90;;;;;;5011940;28;20256;-81
2023/07/31 00:32:09;;;;;;;2.13;1.80;;;16.20;99.90;;;;;;4994000;28;20280;-81
2023/07/31 00:34:36;;;;;;;7.18;2.35;;;16.10;99.90;;;;;;4981623;28;20479;-80
2023/07/31 00:37:03;;;;;;;2.42;1.58;;;16.10;99.90;;;;;;4982908;28;20225;-80
2023/07/31 00:39:31;;;;;;;2.00;1.50;;;16.20;99.90;;;;;;5000719;28;20201;-81
2023/07/31 00:41:58;;;;;;;4.25;2.00;;;16.10;99.90;;;;;;4990787;28;20198;-81
2023/07/31 00:44:25;;;;;;;3.33;1.58;;;16.20;99.90;;;;;;4983036;28;20672;-78
2023/07/31 00:46:52;;;;;;;2.70;2.05;;;16.20;99.90;;;;;;4981770;28;20222;-80
2023/07/31 00:49:21;;;;;;;5.05;1.88;;;16.10;99.90;;;;;;4989409;28;20199;-80
2023/07/31 00:51:47;;;;;;;2.15;1.60;;;16.20;99.90;;;;;;4986206;28;20292;-80
2023/07/31 00:54:14;;;;;;;3.70;1.60;;;16.20;99.90;;;;;;5000998;28;20216;-81
2023/07/31 00:56:42;;;;;;;2.05;1.52;;;16.10;99.90;;;;;;5000265;28;20224;-77
2023/07/31 00:59:09;;;;;;;3.72;1.48;;;15.90;99.90;;;;;;4987564;28;20190;-79
2023/07/31 01:01:36;;;;;;;3.75;1.27;;;16.10;99.90;;;;;;4994322;28;20544;-80
2023/07/31 01:04:03;;;;;;;2.20;1.52;;;16.10;99.90;;;;;;4999972;28;20212;-80
2023/07/31 01:06:39;;;;;;;2.30;1.30;;;16.10;99.90;;;;;;4981415;28;20228;-80
2023/07/31 01:09:12;;;;;;;2.20;1.30;;;16.10;99.90;;;;;;4991115;28;20684;-80
2023/07/31 01:11:46;;;;;;;2.08;1.50;;;16.10;99.90;;;;;;5000916;28;20190;-80
2023/07/31 01:14:13;;;;;;;1.58;1.48;;;16.10;99.90;;;;;;4984483;28;20210;-80
2023/07/31 01:16:40;;;;;;;1.92;1.20;;;16.10;99.90;;;;;;4994312;28;20217;-81
2023/07/31 01:19:09;;;;;;;2.33;1.33;;;15.90;99.90;;;;;;4991274;28;20201;-78
2023/07/31 01:21:54;;;;;;;2.38;1.55;;;15.90;99.90;;;;;;5000775;28;20288;-80
2023/07/31 01:24:23;;;;;;;10.18;1.88;;;16.00;99.90;;;;;;4987624;28;20193;-79
2023/07/31 01:26:57;;;;;;;2.17;1.40;;;16.00;99.90;;;;;;4999858;28;20220;-78
2023/07/31 01:29:32;;;;;;;4.07;1.55;;;16.10;99.90;;;;;;5003803;28;20197;-81
2023/07/31 01:32:02;;;;;;;2.20;1.33;;;16.00;99.90;;;;;;5002762;28;20251;-78
2023/07/31 01:34:31;;;;;;;3.33;1.52;;;16.00;99.90;;;;;;5000832;28;20212;-80
2023/07/31 01:36:58;;;;;;;1.42;1.25;;;15.90;99.90;;;;;;5000547;28;20229;-79
2023/07/31 01:39:25;;;;;;;2.80;1.17;;;16.10;99.90;;;;;;5006791;28;20209;-80
2023/07/31 01:41:53;;;;;;;1.73;1.13;;;16.10;99.90;;;;;;5000479;28;20667;-79
2023/07/31 01:44:19;;;;;;;2.25;0.80;;;16.00;99.90;;;;;;4992028;28;20205;-79
2023/07/31 01:46:46;;;;;;;1.75;1.08;;;15.90;99.90;;;;;;4998446;28;20221;-80
2023/07/31 01:49:13;;;;;;;1.73;1.13;;;15.90;99.90;;;;;;4995626;28;20293;-79
2023/07/31 01:51:40;;;;;;;1.75;0.70;;;15.90;99.90;;;;;;5002759;28;20211;-79
2023/07/31 01:54:07;;;;;;;1.02;0.70;;;16.00;99.90;;;;;;4998835;28;20209;-79
2023/07/31 01:56:34;;;;;;;1.08;0.98;;;15.90;99.90;;;;;;5008668;28;20243;-80
2023/07/31 01:59:02;;;;;;;1.52;0.73;;;15.80;99.90;;;;;;4999830;28;20205;-80
2023/07/31 02:01:29;;;;;;;1.33;0.52;;;15.80;99.90;;;;;;5000351;28;20268;-80
2023/07/31 02:03:56;;;;;;;0.80;0.75;;;15.90;99.90;;;;;;4994710;28;20218;-78
2023/07/31 02:06:23;;;;;;;0.82;0.50;;;15.80;99.90;;;;;;4994146;28;20228;-80
2023/07/31 02:08:50;;;;;;;1.17;0.75;;;15.80;99.90;;;;;;4997201;28;20208;-77
2023/07/31 02:11:17;;;;;;;2.05;0.70;;;15.80;99.90;;;;;;4979481;28;20292;-80
2023/07/31 02:13:43;;;;;;;3.63;0.95;;;15.90;99.90;;;;;;4979927;28;20206;-80
2023/07/31 02:16:11;;;;;;;0.60;0.55;;;15.90;99.90;;;;;;4998044;28;20221;-77
2023/07/31 02:18:38;;;;;;;0.65;0.55;;;15.80;99.90;;;;;;4993282;28;20234;-77
2023/07/31 02:21:05;;;;;;;0.75;0.70;;;15.80;99.90;;;;;;4997602;28;20299;-79
2023/07/31 02:23:32;;;;;;;2.45;0.70;;;15.90;99.90;;;;;;4986222;28;20281;-79
2023/07/31 02:25:59;;;;;;;2.55;0.70;;;16.00;99.90;;;;;;5001600;28;20291;-78
2023/07/31 02:28:26;;;;;;;1.08;1.00;;;16.00;99.90;;;;;;5005613;28;20204;-80
2023/07/31 02:30:53;;;;;;;1.10;0.68;;;15.90;99.90;;;;;;4984512;28;20318;-78
2023/07/31 02:33:21;;;;;;;0.70;0.70;;;15.90;99.90;;;;;;4992925;28;20201;-80
2023/07/31 02:35:48;;;;;;;2.35;0.70;;;16.00;99.90;;;;;;4979858;28;20205;-79
2023/07/31 02:38:15;;;;;;;2.35;0.75;;;15.90;99.90;;;;;;4979785;28;20233;-80
2023/07/31 02:40:42;;;;;;;14.85;9.55;;;16.00;99.90;;;;;;4998200;28;20211;-81
2023/07/31 02:43:09;;;;;;;2.10;1.90;;;15.90;99.90;;;;;;4999338;28;20205;-80
2023/07/31 02:45:35;;;;;;;2.08;1.27;;;15.90;99.90;;;;;;4998877;28;20197;-78
2023/07/31 02:48:02;;;;;;;0.80;0.80;;;15.80;99.90;;;;;;5006232;28;20229;-81
2023/07/31 02:50:31;;;;;;;0.80;0.68;;;16.00;99.90;;;;;;4998992;28;20213;-80
2023/07/31 02:52:58;;;;;;;1.15;1.08;;;16.00;99.90;;;;;;4997843;28;20567;-78
2023/07/31 02:55:25;;;;;;;0.68;0.68;;;16.00;99.90;;;;;;4981260;28;20215;-80
2023/07/31 02:57:52;;;;;;;1.00;0.65;;;15.90;99.90;;;;;;4996679;28;20239;-78
2023/07/31 03:00:19;;;;;;;1.33;0.85;;;16.00;99.90;;;;;;5000020;28;20197;-80
2023/07/31 03:02:46;;;;;;;0.88;0.68;;;15.90;99.90;;;;;;4999510;28;20202;-78
2023/07/31 03:05:13;;;;;;;1.75;0.63;;;15.90;99.90;;;;;;5000119;28;20208;-80
2023/07/31 03:07:41;;;;;;;1.95;0.77;;;15.80;99.90;;;;;;5000165;28;20224;-80
2023/07/31 03:10:09;;;;;;;2.22;0.80;;;15.80;99.90;;;;;;4999572;28;20204;-80
2023/07/31 03:12:35;;;;;;;2.78;0.80;;;15.80;99.90;;;;;;5012385;28;20211;-80
2023/07/31 03:15:02;;;;;;;1.77;0.80;;;15.90;99.90;;;;;;5019505;28;20214;-78
2023/07/31 03:17:29;;;;;;;0.75;0.75;;;15.80;99.90;;;;;;5017699;28;20216;-79
2023/07/31 03:19:56;;;;;;;2.03;0.90;;;15.90;99.90;;;;;;5017971;28;20204;-80
2023/07/31 03:22:22;;;;;;;1.95;0.68;;;15.80;99.90;;;;;;5009287;28;20251;-79
2023/07/31 03:24:51;;;;;;;1.00;1.00;;;15.80;99.90;;;;;;4997619;28;20647;-80
2023/07/31 03:27:17;;;;;;;1.50;0.90;;;15.80;99.90;;;;;;4998234;28;20225;-80
2023/07/31 03:29:44;;;;;;;2.03;0.85;;;15.90;99.90;;;;;;4992855;28;20197;-80
2023/07/31 03:32:11;;;;;;;1.48;0.93;;;15.80;99.90;;;;;;4984292;28;20203;-83
2023/07/31 03:34:38;;;;;;;3.40;2.00;;;15.90;99.90;;;;;;4992201;28;20663;-80
2023/07/31 03:37:05;;;;;;;6.05;2.00;;;15.80;99.90;;;;;;4988759;28;20228;-80
2023/07/31 03:39:32;;;;;;;1.60;1.15;;;15.80;99.90;;;;;;4992300;28;20203;-80
2023/07/31 03:42:00;;;;;;;3.13;0.82;;;15.80;99.90;;;;;;4983692;28;20348;-79
2023/07/31 03:44:27;;;;;;;1.00;0.88;;;15.80;99.90;;;;;;4992885;28;20205;-80
2023/07/31 03:46:54;;;;;;;1.95;0.95;;;15.80;99.90;;;;;;4979254;28;20233;-79
2023/07/31 03:49:21;;;;;;;2.20;1.00;;;15.80;99.90;;;;;;4979154;28;20207;-81
2023/07/31 03:51:47;;;;;;;2.75;1.25;;;15.80;99.90;;;;;;4984537;28;20203;-79
2023/07/31 03:54:14;;;;;;;0.70;0.70;;;15.80;99.90;;;;;;4999412;28;20213;-80
2023/07/31 03:56:41;;;;;;;1.20;0.93;;;15.80;99.90;;;;;;4998338;28;20553;-81
2023/07/31 03:59:09;;;;;;;0.98;0.98;;;15.70;99.90;;;;;;4990067;28;20224;-79
2023/07/31 04:01:38;;;;;;;1.60;1.05;;;15.70;99.90;;;;;;4997914;28;20655;-79
2023/07/31 04:04:05;;;;;;;1.00;0.90;;;15.70;99.90;;;;;;4984435;28;20201;-81
2023/07/31 04:06:32;;;;;;;1.30;1.20;;;15.70;99.90;;;;;;4980385;28;20292;-81
2023/07/31 04:08:58;;;;;;;0.73;0.73;;;15.60;99.90;;;;;;4979684;28;20233;-79
2023/07/31 04:11:25;;;;;;;3.42;1.00;;;15.60;99.90;;;;;;4980167;28;20213;-81
2023/07/31 04:13:52;;;;;;;3.22;1.10;;;15.60;99.90;;;;;;5000828;28;20201;-81
2023/07/31 04:16:20;;;;;;;4.00;0.95;;;15.40;99.90;;;;;;5002193;28;20221;-78
2023/07/31 04:18:47;;;;;;;4.78;2.10;;;15.60;99.90;;;;;;4995819;28;20591;-80
2023/07/31 04:21:14;;;;;;;5.25;2.05;;;15.40;99.90;;;;;;4981890;28;20210;-80
2023/07/31 04:23:40;;;;;;;3.50;1.10;;;15.50;99.90;;;;;;4984374;28;20213;-80
2023/07/31 04:26:07;;;;;;;1.30;1.15;;;15.50;99.90;;;;;;4991347;28;20649;-79
2023/07/31 04:28:34;;;;;;;3.58;0.82;;;15.50;99.90;;;;;;4986818;28;20228;-80
2023/07/31 04:31:01;;;;;;;3.03;1.13;;;15.50;99.90;;;;;;4986767;28;20200;-81
2023/07/31 04:33:29;;;;;;;2.67;0.98;;;15.50;99.90;;;;;;4999211;28;20209;-81
2023/07/31 04:35:56;;;;;;;1.17;0.75;;;15.40;99.90;;;;;;4992819;28;20300;-81
2023/07/31 04:38:23;;;;;;;3.88;0.73;;;15.40;99.90;;;;;;4985587;28;20232;-80
2023/07/31 04:40:50;;;;;;;1.40;0.60;;;15.40;99.90;;;;;;4999921;28;20201;-81
2023/07/31 04:43:17;;;;;;;0.60;0.60;;;15.40;99.90;;;;;;5003088;28;20582;-81
2023/07/31 04:45:46;;;;;;;1.80;0.90;;;15.40;99.90;;;;;;5001619;28;20332;-80
2023/07/31 04:48:14;;;;;;;0.88;0.60;;;15.40;99.90;;;;;;5000916;28;20208;-81
2023/07/31 04:50:42;;;;;;;0.90;0.70;;;15.30;99.90;;;;;;5000308;28;20631;-81
2023/07/31 04:53:09;;;;;;;1.05;0.40;;;15.40;99.90;;;;;;4985910;28;20202;-80
2023/07/31 04:55:35;;;;;;;1.13;0.60;;;15.30;99.90;;;;;;4986018;28;20648;-83
2023/07/31 04:58:06;;;;;;;1.13;0.45;;;15.40;99.90;;;;;;4985417;28;20229;-82
2023/07/31 05:00:33;;;;;;;1.25;0.47;;;15.40;99.90;;;;;;4986336;28;20213;-83
2023/07/31 05:03:00;;;;;;;1.73;0.80;;;15.30;99.90;;;;;;4985028;28;20572;-84
2023/07/31 05:05:27;;;;;;;2.33;1.02;;;15.40;99.90;;;;;;4985023;28;20653;-82
2023/07/31 05:07:55;;;;;;;1.80;0.90;;;15.40;99.90;;;;;;5001788;28;20225;-82
2023/07/31 05:10:27;;;;;;;2.42;1.10;;;15.50;99.90;;;;;;5001928;28;20565;-83
2023/07/31 05:12:59;;;;;;;1.60;1.20;;;15.40;99.90;;;;;;4987709;28;20666;-84
2023/07/31 05:18:26;;;;;;;3.03;2.40;;;15.50;99.90;;;;;;5004534;28;20205;-82
2023/07/31 05:20:52;;;;;;;4.75;2.60;;;15.60;99.90;;;;;;5005217;28;20260;-83
2023/07/31 05:23:27;;;;;;;3.55;2.70;;;15.60;99.90;;;;;;5003652;28;20233;-84
2023/07/31 05:26:04;;;;;;;4.93;2.80;;;15.70;99.90;;;;;;5003178;28;20263;-82
2023/07/31 05:28:38;;;;;;;4.60;3.05;;;15.70;99.90;;;;;;5006407;28;20278;-84
2023/07/31 05:31:10;;;;;;;4.80;3.45;;;15.70;99.90;;;;;;5003285;28;20483;-84
2023/07/31 05:33:51;;;;;;;7.93;4.10;;;15.70;99.90;;;;;;5002291;28;20224;-84
2023/07/31 05:36:17;;;;;;;6.15;4.60;;;15.60;99.90;;;;;;4985687;28;20296;-80
2023/07/31 05:38:50;;;;;;;9.98;5.47;;;15.80;99.90;;;;;;5003679;28;20219;-83
2023/07/31 05:41:27;;;;;;;10.75;5.45;;;15.90;99.90;;;;;;5003600;28;20304;-83
2023/07/31 05:43:54;;;;;;;12.20;6.20;;;15.90;99.90;;;;;;4996926;28;20205;-83
2023/07/31 05:46:34;;;;;;;12.27;6.50;;;16.00;99.90;;;;;;5003480;28;20233;-84
2023/07/31 05:49:09;;;;;;;10.60;6.07;;;16.10;99.90;;;;;;5003912;28;20651;-84
2023/07/31 05:51:36;;;;;;;10.68;5.78;;;16.00;99.90;;;;;;5003580;28;20216;-83
2023/07/31 05:54:04;;;;;;;10.45;6.10;;;16.10;99.90;;;;;;4999714;28;20622;-82
2023/07/31 05:56:31;;;;;;;10.73;6.00;;;16.00;99.90;;;;;;4988391;28;20324;-85
2023/07/31 05:58:58;;;;;;;13.38;6.53;;;16.00;99.90;;;;;;4983528;28;20460;-85
2023/07/31 06:01:28;;;;;;;12.68;6.15;;;16.00;99.90;;;;;;4984071;28;20205;-82
2023/07/31 06:03:55;;;;;;;10.60;5.93;;;16.00;99.90;;;;;;4991389;28;20615;-83
2023/07/31 06:06:22;;;;;;;9.90;5.55;;;16.00;99.90;;;;;;5006811;28;20252;-83
2023/07/31 06:08:50;;;;;;;9.82;5.22;;;16.00;99.90;;;;;;5020200;28;20196;-82
2023/07/31 06:11:20;;;;;;;10.52;6.15;;;16.10;99.90;;;;;;5014224;28;20209;-82
2023/07/31 06:13:50;;;;;;;10.00;5.65;;;16.10;99.90;;;;;;5008959;28;20217;-83
2023/07/31 06:16:21;;;;;;;8.18;4.75;;;16.00;99.90;;;;;;5010929;28;20264;-79
2023/07/31 06:18:48;;;;;;;10.57;4.78;;;16.00;99.90;;;;;;5005777;28;20225;-83
2023/07/31 06:21:15;;;;;;;7.75;5.13;;;16.00;99.90;;;;;;5010101;28;20220;-83
2023/07/31 06:23:44;;;;;;;8.63;4.85;;;16.10;99.90;;;;;;4999753;28;20197;-83
2023/07/31 06:26:11;;;;;;;9.00;5.35;;;16.10;99.90;;;;;;5004783;28;20232;-79
2023/07/31 06:28:40;;;;;;;9.38;5.43;;;16.10;99.90;;;;;;5009824;28;20670;-85
2023/07/31 06:31:11;;;;;;;14.85;6.07;;;16.10;99.90;;;;;;5005873;28;20213;-84
2023/07/31 06:33:38;;;;;;;10.50;5.55;;;16.20;99.90;;;;;;5021886;28;20663;-82
2023/07/31 06:36:05;;;;;;;12.70;6.50;;;16.10;99.90;;;;;;5005715;28;20650;-83
2023/07/31 06:38:33;;;;;;;12.13;6.55;;;16.10;99.90;;;;;;5003090;28;20212;-82
2023/07/31 06:41:00;;;;;;;10.88;7.00;;;16.00;99.90;;;;;;5002827;28;20265;-81
2023/07/31 06:43:27;;;;;;;11.13;7.10;;;16.00;99.90;;;;;;5004313;28;20351;-83
2023/07/31 06:45:55;;;;;;;13.07;7.15;;;16.00;99.90;;;;;;5002065;28;20209;-83
2023/07/31 06:48:22;;;;;;;14.32;8.00;;;16.10;99.90;;;;;;5003122;28;20204;-85
2023/07/31 06:50:49;;;;;;;14.55;8.48;;;16.10;99.90;;;;;;5000397;28;20292;-84
2023/07/31 06:53:15;;;;;;;12.93;8.50;;;16.10;99.90;;;;;;5002891;28;20269;-82
2023/07/31 06:55:42;;;;;;;16.08;8.88;;;16.20;99.90;;;;;;5001892;28;20225;-81
2023/07/31 06:58:09;;;;;;;17.42;9.55;;;16.20;99.90;;;;;;5002969;28;20225;-81
2023/07/31 07:00:36;;;;;;;17.30;9.25;;;16.10;99.90;;;;;;5003027;28;20655;-82
2023/07/31 07:03:04;;;;;;;17.67;9.02;;;16.20;99.90;;;;;;5003332;28;20281;-79
2023/07/31 07:05:31;;;;;;;16.63;9.13;;;16.20;99.90;;;;;;5003152;28;20228;-81
2023/07/31 07:07:59;;;;;;;16.67;9.15;;;16.20;99.90;;;;;;5001109;28;20732;-82
2023/07/31 07:10:25;;;;;;;18.08;9.15;;;16.20;99.90;;;;;;5003559;28;20216;-82
2023/07/31 07:12:52;;;;;;;18.27;9.63;;;16.20;99.90;;;;;;5002096;28;20213;-82
2023/07/31 07:15:19;;;;;;;16.33;9.20;;;16.20;99.90;;;;;;5003200;28;20215;-80
2023/07/31 07:17:46;;;;;;;18.38;8.95;;;16.30;99.90;;;;;;5003376;28;20225;-81
2023/07/31 07:20:14;;;;;;;16.50;8.80;;;16.20;99.90;;;;;;5001215;28;20252;-81
2023/07/31 07:22:42;;;;;;;17.33;10.23;;;16.20;99.90;;;;;;5007193;28;20212;-80
2023/07/31 07:25:09;;;;;;;17.30;8.95;;;16.20;99.90;;;;;;4999196;28;20255;-80
2023/07/31 07:27:36;;;;;;;12.65;8.57;;;16.30;99.90;;;;;;4998893;28;20229;-82
2023/07/31 07:30:04;;;;;;;14.70;7.65;;;16.40;99.90;;;;;;4998596;28;20292;-82
2023/07/31 07:32:31;;;;;;;13.02;7.90;;;16.30;99.90;;;;;;4998986;28;20212;-82
2023/07/31 07:34:57;;;;;;;11.75;7.10;;;16.30;99.90;;;;;;4998471;28;20818;-82
2023/07/31 07:37:25;;;;;;;11.77;7.53;;;16.50;99.90;;;;;;4998271;28;20224;-81
2023/07/31 07:39:52;;;;;;;13.27;7.60;;;16.50;99.90;;;;;;4998885;28;20280;-82
2023/07/31 07:42:19;;;;;;;16.45;8.02;;;16.50;99.90;;;;;;4998139;28;20213;-82
2023/07/31 07:44:46;;;;;;;13.15;7.22;;;16.60;99.90;;;;;;4997738;28;20292;-81
2023/07/31 07:47:14;;;;;;;16.90;7.80;;;16.60;99.90;;;;;;4998788;28;20224;-83
2023/07/31 07:49:40;;;;;;;15.40;8.57;;;16.60;99.90;;;;;;5001443;28;20204;-81
2023/07/31 07:52:08;;;;;;;10.38;6.15;;;16.60;99.90;;;;;;5001096;28;20296;-81
2023/07/31 07:54:36;;;;;;;12.65;6.50;;;16.70;99.90;;;;;;5011548;28;20658;-81
2023/07/31 07:57:03;;;;;;;11.93;6.78;;;16.70;99.90;;;;;;5012703;28;20236;-81
2023/07/31 07:59:29;;;;;;;13.20;6.82;;;16.80;99.90;;;;;;5002851;28;20225;-81
2023/07/31 08:01:57;;;;;;;12.07;6.20;;;16.70;99.90;;;;;;5002495;28;20216;-82
2023/07/31 08:04:24;;;;;;;14.02;6.80;;;16.70;99.90;;;;;;5003491;28;20213;-83
2023/07/31 08:06:51;;;;;;;13.13;6.55;;;16.80;99.90;;;;;;5001809;28;20292;-82
2023/07/31 08:09:17;;;;;;;11.88;6.38;;;16.80;99.90;;;;;;5006644;28;20211;-81
2023/07/31 08:11:45;;;;;;;14.02;6.30;;;16.60;99.90;;;;;;5007288;28;20581;-82
2023/07/31 08:14:12;;;;;;;12.55;6.50;;;16.70;99.90;;;;;;5012742;28;20215;-82
2023/07/31 08:16:39;;;;;;;13.13;6.43;;;16.70;99.90;;;;;;5009491;28;20227;-80
2023/07/31 08:19:06;;;;;;;9.52;6.10;;;16.70;99.90;;;;;;5002389;28;20231;-81
2023/07/31 08:21:33;;;;;;;12.82;6.53;;;16.70;99.90;;;;;;5002039;28;20207;-82
2023/07/31 08:24:00;;;;;;;9.30;5.60;;;16.80;99.90;;;;;;5001957;28;20573;-82
2023/07/31 08:26:27;;;;;;;12.82;6.45;;;16.90;99.90;;;;;;5001337;28;20584;-82
2023/07/31 08:28:55;;;;;;;12.93;6.32;;;17.00;99.90;;;;;;5002736;28;20404;-83
2023/07/31 08:31:21;;;;;;;11.68;6.15;;;16.90;99.90;;;;;;5003421;28;20289;-82
2023/07/31 08:33:48;;;;;;;9.73;6.30;;;16.90;99.90;;;;;;5003214;28;20221;-81
2023/07/31 08:36:15;;;;;;;11.30;6.53;;;16.90;99.90;;;;;;5003144;28;20233;-82
2023/07/31 08:38:42;;;;;;;13.82;7.55;;;16.90;99.90;;;;;;5000794;28;20271;-81
2023/07/31 08:41:09;;;;;;;10.35;6.18;;;16.90;99.90;;;;;;5002855;28;20213;-82
2023/07/31 08:43:37;;;;;;;12.13;5.82;;;16.90;99.90;;;;;;5002646;28;20678;-82
2023/07/31 08:46:05;;;;;;;12.27;5.88;;;16.90;99.90;;;;;;5001870;28;20228;-82
2023/07/31 08:48:33;;;;;;;14.07;6.68;;;16.90;99.90;;;;;;5001954;28;20233;-82
2023/07/31 08:51:00;;;;;;;10.25;6.18;;;16.90;99.90;;;;;;5003157;28;20200;-82
2023/07/31 08:53:26;;;;;;;11.35;5.45;;;16.90;99.90;;;;;;5002534;28;20217;-81
2023/07/31 08:55:54;;;;;;;9.73;5.90;;;16.80;99.90;;;;;;5001793;28;20220;-81
2023/07/31 08:58:21;;;;;;;13.95;6.22;;;16.70;99.90;;;;;;4983355;28;20336;-81
2023/07/31 09:00:49;;;;;;;9.70;5.53;;;16.70;99.90;;;;;;4981902;28;20237;-81
2023/07/31 09:03:19;;;;;;;8.65;5.13;;;16.60;99.90;;;;;;4981871;28;20210;-81
2023/07/31 09:05:47;;;;;;;10.32;5.75;;;16.60;99.90;;;;;;4985316;28;20205;-82
2023/07/31 09:08:18;;;;;;;10.27;4.75;;;16.60;99.90;;;;;;5002907;28;20201;-81
2023/07/31 09:10:46;;;;;;;9.75;5.03;;;16.60;99.90;;;;;;5003431;28;20203;-80
2023/07/31 09:13:14;;;;;;;7.80;4.57;;;16.60;99.90;;;;;;5003067;28;20291;-80
2023/07/31 09:15:43;;;;;;;6.97;3.83;;;16.70;99.90;;;;;;5001922;28;20208;-82
2023/07/31 09:18:10;;;;;;;8.35;4.38;;;16.70;99.90;;;;;;5001722;28;20279;-81
2023/07/31 09:20:39;;;;;;;5.05;3.53;;;16.80;99.90;;;;;;5001609;28;20235;-81
2023/07/31 09:23:10;;;;;;;5.22;3.35;;;16.80;99.90;;;;;;5002618;28;20307;-80
2023/07/31 09:25:38;;;;;;;4.53;2.88;;;17.00;99.90;;;;;;5003038;28;20260;-82
2023/07/31 09:28:07;;;;;;;6.68;3.15;;;16.90;99.90;;;;;;5004341;28;20265;-83
2023/07/31 09:30:46;;;;;;;3.97;2.97;;;16.90;99.90;;;;;;5001791;28;20229;-82
2023/07/31 09:33:13;;;;;;;3.97;2.45;;;16.90;99.90;;;;;;5015268;28;20200;-82
2023/07/31 09:35:41;;;;;;;3.72;2.60;;;16.90;99.90;;;;;;5019980;28;20234;-82
2023/07/31 09:38:11;;;;;;;4.05;2.85;;;16.90;99.90;;;;;;5021307;28;20215;-80
2023/07/31 09:40:40;;;;;;;4.03;2.45;;;16.90;99.90;;;;;;5022865;28;20225;-82
2023/07/31 09:43:08;;;;;;;4.47;2.53;;;16.90;99.90;;;;;;5022969;28;20212;-81
2023/07/31 09:45:37;;;;;;;4.15;2.63;;;16.90;99.90;;;;;;5022352;28;20204;-82
2023/07/31 09:48:08;;;;;;;4.32;2.83;;;17.10;99.90;;;;;;5021684;28;20232;-82
2023/07/31 09:50:37;;;;;;;4.32;2.78;;;17.00;99.90;;;;;;5021708;28;20235;-81
2023/07/31 09:53:06;;;;;;;4.50;2.95;;;17.10;99.90;;;;;;5022623;28;20653;-82
2023/07/31 09:55:36;;;;;;;6.32;3.20;;;17.00;99.90;;;;;;5020937;28;20210;-83
2023/07/31 09:58:05;;;;;;;4.93;3.10;;;16.90;99.90;;;;;;5021530;28;20232;-83
2023/07/31 10:00:33;;;;;;;4.47;3.22;;;17.00;99.90;;;;;;5020267;28;20227;-84
2023/07/31 10:03:01;;;;;;;5.53;3.13;;;17.10;99.90;;;;;;5022059;28;20234;-83
2023/07/31 10:05:32;;;;;;;4.47;3.17;;;17.10;99.90;;;;;;5020304;28;20228;-83
2023/07/31 10:07:59;;;;;;;6.60;3.78;;;17.10;99.90;;;;;;5018716;28;20290;-83
2023/07/31 10:10:28;;;;;;;4.72;3.70;;;17.10;99.90;;;;;;5018524;28;20266;-82
2023/07/31 10:12:57;;;;;;;4.05;3.10;;;17.30;99.90;;;;;;5022083;28;20200;-84
2023/07/31 10:15:24;;;;;;;4.85;3.30;;;17.40;99.90;;;;;;5021010;28;20224;-84
2023/07/31 10:17:52;;;;;;;5.35;3.38;;;17.50;99.90;;;;;;5020491;28;20228;-83
2023/07/31 10:20:19;;;;;;;5.28;3.72;;;17.60;99.90;;;;;;5020769;28;20330;-83
2023/07/31 10:22:46;;;;;;;4.43;3.30;;;17.70;99.90;;;;;;5020326;28;20243;-82
2023/07/31 10:25:13;;;;;;;5.28;3.40;;;17.80;99.90;;;;;;5020642;28;20199;-82
2023/07/31 10:27:42;;;;;;;5.13;3.40;;;17.90;99.90;;;;;;5019825;28;20318;-82
2023/07/31 10:30:13;;;;;;;5.50;3.90;;;17.80;99.90;;;;;;5019162;28;20570;-83
2023/07/31 10:32:42;;;;;;;6.50;3.35;;;18.00;99.90;;;;;;5019942;28;20204;-83
2023/07/31 10:35:10;;;;;;;5.50;3.13;;;18.10;99.90;;;;;;5019638;28;20582;-83
2023/07/31 10:37:39;;;;;;;5.63;3.90;;;18.10;99.90;;;;;;5019417;28;20216;-83
2023/07/31 10:40:10;;;;;;;6.55;3.90;;;18.00;99.90;;;;;;5020320;28;20600;-83
2023/07/31 10:42:39;;;;;;;6.68;3.50;;;18.10;99.90;;;;;;5019587;28;20675;-82
2023/07/31 10:45:10;;;;;;;4.95;3.47;;;18.20;99.90;;;;;;5020301;28;20298;-83
2023/07/31 10:47:43;;;;;;;4.32;3.30;;;18.30;99.90;;;;;;5017921;28;20232;-83
2023/07/31 10:50:19;;;;;;;5.28;3.40;;;18.50;99.90;;;;;;5019207;28;20613;-83
2023/07/31 10:52:49;;;;;;;6.68;3.95;;;18.90;99.90;;;;;;5020002;28;20203;-84
2023/07/31 10:55:23;;;;;;;5.65;3.25;;;19.20;99.90;;;;;;5019223;28;20207;-83
2023/07/31 10:57:50;;;;;;;6.25;3.40;;;19.30;99.90;;;;;;5017404;28;20244;-82
2023/07/31 11:00:24;;;;;;;3.65;3.17;;;19.30;99.90;;;;;;5019436;28;20287;-84
2023/07/31 11:03:01;;;;;;;4.93;3.20;;;19.40;99.90;;;;;;5019861;28;20208;-83
2023/07/31 11:05:48;;;;;;;3.17;2.88;;;19.30;99.90;;;;;;5019727;28;20222;-82
2023/07/31 11:08:17;;;;;;;4.90;3.00;;;19.70;99.90;;;;;;5018432;28;20214;-84
2023/07/31 11:10:45;;;;;;;6.20;3.03;;;19.70;99.90;;;;;;5019953;28;20205;-83
2023/07/31 11:13:12;;;;;;;5.60;3.00;;;19.70;99.90;;;;;;5009807;28;20205;-84
2023/07/31 11:15:40;;;;;;;4.43;2.85;;;19.40;99.90;;;;;;4997224;28;20676;-82
2023/07/31 11:18:08;;;;;;;4.47;3.08;;;19.40;99.90;;;;;;4996666;28;20217;-83
2023/07/31 11:20:36;;;;;;;5.20;2.70;;;19.30;99.90;;;;;;4998559;28;20280;-83
2023/07/31 11:23:04;;;;;;;2.85;2.60;;;19.20;99.90;;;;;;4999403;28;20268;-83
2023/07/31 11:25:32;;;;;;;5.00;2.92;;;19.30;99.90;;;;;;4997982;28;20567;-83
2023/07/31 11:28:02;;;;;;;4.43;2.60;;;19.20;99.90;;;;;;5007590;28;20599;-83
2023/07/31 11:30:29;;;;;;;4.68;2.65;;;19.10;99.90;;;;;;5017865;28;20690;-83
2023/07/31 11:32:57;;;;;;;4.60;2.63;;;19.00;99.90;;;;;;5018168;28;20294;-84
2023/07/31 11:35:24;;;;;;;3.10;2.80;;;19.00;99.90;;;;;;5017446;28;20348;-84
2023/07/31 11:37:51;;;;;;;5.05;2.90;;;19.00;99.90;;;;;;4998197;28;20224;-82
2023/07/31 11:40:19;;;;;;;4.47;2.85;;;19.00;99.90;;;;;;4997886;28;20217;-84
2023/07/31 11:42:46;;;;;;;4.35;3.25;;;19.00;99.90;;;;;;4998874;28;20212;-84
2023/07/31 11:45:13;;;;;;;6.00;3.03;;;19.10;99.90;;;;;;4998264;28;20249;-81
2023/07/31 11:47:40;;;;;;;6.05;2.70;;;19.20;99.90;;;;;;4996451;28;20223;-84
2023/07/31 11:50:12;;;;;;;5.38;2.67;;;19.20;99.90;;;;;;4998201;28;20201;-84
2023/07/31 11:52:42;;;;;;;3.60;2.30;;;19.20;99.90;;;;;;5005021;28;20196;-83
2023/07/31 11:55:10;;;;;;;3.00;2.58;;;19.10;99.90;;;;;;4997846;28;20215;-81
2023/07/31 11:57:39;;;;;;;2.53;2.10;;;19.20;99.90;;;;;;4988597;28;20918;-85
2023/07/31 12:00:08;;;;;;;3.35;2.40;;;19.10;99.90;;;;;;4994418;28;20235;-83
2023/07/31 12:02:35;;;;;;;4.85;2.45;;;19.20;99.90;;;;;;4996403;28;20201;-83
2023/07/31 12:05:03;;;;;;;2.60;2.30;;;19.30;99.90;;;;;;4995769;28;20211;-82
2023/07/31 12:07:44;;;;;;;3.05;2.28;;;19.20;99.90;;;;;;4998685;28;20231;-84
2023/07/31 12:10:11;;;;;;;5.28;2.40;;;19.20;99.90;;;;;;4996256;28;20205;-86
2023/07/31 12:12:38;;;;;;;5.22;2.58;;;19.20;99.90;;;;;;4992018;28;20205;-84
2023/07/31 12:15:15;;;;;;;3.88;2.30;;;19.20;99.90;;;;;;4999073;28;20213;-85
2023/07/31 12:17:42;;;;;;;2.67;1.83;;;19.20;99.90;;;;;;4993422;28;20228;-85
2023/07/31 12:20:10;;;;;;;2.50;2.15;;;18.90;99.90;;;;;;4993713;28;20221;-84
2023/07/31 12:22:38;;;;;;;2.65;1.95;;;18.90;99.90;;;;;;4995948;28;20207;-85
2023/07/31 12:25:05;;;;;;;3.35;2.50;;;18.80;99.90;;;;;;4995927;28;20557;-84
2023/07/31 12:27:35;;;;;;;3.97;2.10;;;18.90;99.90;;;;;;4995984;28;20225;-86
2023/07/31 12:30:01;;;;;;;3.88;2.40;;;18.90;99.90;;;;;;4992749;28;20205;-85
2023/07/31 12:32:32;;;;;;;3.10;2.10;;;18.80;99.90;;;;;;4992616;28;20212;-85
2023/07/31 12:35:02;;;;;;;4.93;2.33;;;18.90;99.90;;;;;;5002405;28;20207;-86
2023/07/31 12:37:30;;;;;;;3.67;2.25;;;19.10;99.90;;;;;;4995388;28;20279;-83
2023/07/31 12:40:03;;;;;;;5.05;2.28;;;19.10;99.90;;;;;;5006535;28;20256;-85
2023/07/31 12:42:31;;;;;;;2.58;2.17;;;19.20;99.90;;;;;;4996706;28;20201;-85
2023/07/31 12:44:58;;;;;;;6.32;2.65;;;19.10;99.90;;;;;;5003977;28;20287;-85
2023/07/31 12:47:25;;;;;;;2.58;1.92;;;18.70;99.90;;;;;;4996054;28;20252;-83
2023/07/31 12:49:52;;;;;;;3.58;2.20;;;18.60;99.90;;;;;;4995865;28;20292;-84
2023/07/31 12:52:19;;;;;;;4.47;2.20;;;18.50;99.90;;;;;;5000152;28;20564;-85